sensor_id;sensor_type;location;lat;lon;timestamp;pressure;altitude;pressure_sealevel;temperature;humidity
55456;BME280;63021;52.836;6.376;2023-01-08T00:02:17;100315.13;;;9.76;76.33
55456;BME280;63021;52.836;6.376;2023-01-08T00:04:42;100301.69;;;9.77;76.70
55456;BME280;63021;52.836;6.376;2023-01-08T00:07:08;100290.03;;;9.78;76.38
55456;BME280;63021;52.836;6.376;2023-01-08T00:09:33;100287.38;;;9.78;76.79
55456;BME280;63021;52.836;6.376;2023-01-08T00:11:59;100303.06;;;9.81;76.57
55456;BME280;63021;52.836;6.376;2023-01-08T00:14:25;100297.72;;;9.81;76.22
55456;BME280;63021;52.836;6.376;2023-01-08T00:16:50;100307.19;;;9.84;76.68
55456;BME280;63021;52.836;6.376;2023-01-08T00:19:16;100293.75;;;9.85;76.68
55456;BME280;63021;52.836;6.376;2023-01-08T00:21:42;100305.56;;;9.83;76.69
55456;BME280;63021;52.836;6.376;2023-01-08T00:24:07;100289.59;;;9.83;76.63
55456;BME280;63021;52.836;6.376;2023-01-08T00:26:32;100300.41;;;9.81;76.65
55456;BME280;63021;52.836;6.376;2023-01-08T00:28:58;100291.72;;;9.79;76.92
55456;BME280;63021;52.836;6.376;2023-01-08T00:31:23;100303.34;;;9.78;77.58
55456;BME280;63021;52.836;6.376;2023-01-08T00:33:49;100298.88;;;9.79;77.80
55456;BME280;63021;52.836;6.376;2023-01-08T00:36:16;100285.59;;;9.79;77.98
55456;BME280;63021;52.836;6.376;2023-01-08T00:38:43;100290.91;;;9.79;78.31
55456;BME280;63021;52.836;6.376;2023-01-08T00:41:09;100283.75;;;9.79;77.97
55456;BME280;63021;52.836;6.376;2023-01-08T00:43:34;100290.03;;;9.78;78.57
55456;BME280;63021;52.836;6.376;2023-01-08T00:46:00;100293.72;;;9.77;77.97
55456;BME280;63021;52.836;6.376;2023-01-08T00:48:25;100274.94;;;9.79;78.66
55456;BME280;63021;52.836;6.376;2023-01-08T00:50:52;100304.34;;;9.77;78.21
55456;BME280;63021;52.836;6.376;2023-01-08T00:53:19;100281.56;;;9.75;78.71
55456;BME280;63021;52.836;6.376;2023-01-08T00:55:45;100276.41;;;9.73;78.57
55456;BME280;63021;52.836;6.376;2023-01-08T00:58:11;100283.69;;;9.71;78.81
55456;BME280;63021;52.836;6.376;2023-01-08T01:00:37;100297.28;;;9.68;78.73
55456;BME280;63021;52.836;6.376;2023-01-08T01:03:03;100293.09;;;9.65;78.54
55456;BME280;63021;52.836;6.376;2023-01-08T01:05:28;100297.91;;;9.62;78.46
55456;BME280;63021;52.836;6.376;2023-01-08T01:07:54;100295.56;;;9.59;78.56
55456;BME280;63021;52.836;6.376;2023-01-08T01:10:19;100290.41;;;9.57;78.49
55456;BME280;63021;52.836;6.376;2023-01-08T01:12:44;100299.50;;;9.54;78.84
55456;BME280;63021;52.836;6.376;2023-01-08T01:15:13;100289.19;;;9.51;78.82
55456;BME280;63021;52.836;6.376;2023-01-08T01:17:40;100285.03;;;9.49;78.68
55456;BME280;63021;52.836;6.376;2023-01-08T01:20:08;100268.41;;;9.47;78.84
55456;BME280;63021;52.836;6.376;2023-01-08T01:22:34;100266.03;;;9.44;78.23
55456;BME280;63021;52.836;6.376;2023-01-08T01:24:59;100271.66;;;9.41;78.45
55456;BME280;63021;52.836;6.376;2023-01-08T01:27:25;100260.38;;;9.39;78.31
55456;BME280;63021;52.836;6.376;2023-01-08T01:29:50;100258.03;;;9.35;77.91
55456;BME280;63021;52.836;6.376;2023-01-08T01:32:16;100282.25;;;9.32;78.01
55456;BME280;63021;52.836;6.376;2023-01-08T01:34:41;100275.56;;;9.28;77.63
55456;BME280;63021;52.836;6.376;2023-01-08T01:37:08;100268.88;;;9.24;77.68
55456;BME280;63021;52.836;6.376;2023-01-08T01:39:35;100279.81;;;9.21;77.54
55456;BME280;63021;52.836;6.376;2023-01-08T01:42:00;100285.56;;;9.16;76.99
55456;BME280;63021;52.836;6.376;2023-01-08T01:44:42;100266.44;;;9.13;76.95
55456;BME280;63021;52.836;6.376;2023-01-08T01:53:00;100279.28;;;8.99;77.06
55456;BME280;63021;52.836;6.376;2023-01-08T01:55:28;100278.88;;;8.94;76.72
55456;BME280;63021;52.836;6.376;2023-01-08T01:58:04;100279.19;;;8.91;76.78
55456;BME280;63021;52.836;6.376;2023-01-08T02:00:32;100303.53;;;8.87;77.20
55456;BME280;63021;52.836;6.376;2023-01-08T02:02:59;100279.94;;;8.83;76.86
55456;BME280;63021;52.836;6.376;2023-01-08T02:05:32;100274.75;;;8.82;76.79
55456;BME280;63021;52.836;6.376;2023-01-08T02:08:05;100270.44;;;8.81;76.63
55456;BME280;63021;52.836;6.376;2023-01-08T02:13:35;100288.63;;;8.76;76.88
55456;BME280;63021;52.836;6.376;2023-01-08T02:16:13;100280.00;;;8.74;76.77
55456;BME280;63021;52.836;6.376;2023-01-08T02:18:46;100273.16;;;8.71;76.74
55456;BME280;63021;52.836;6.376;2023-01-08T02:21:40;100276.94;;;8.69;77.03
55456;BME280;63021;52.836;6.376;2023-01-08T02:24:21;100273.75;;;8.65;76.67
55456;BME280;63021;52.836;6.376;2023-01-08T02:26:51;100280.03;;;8.64;76.54
55456;BME280;63021;52.836;6.376;2023-01-08T02:29:22;100277.53;;;8.62;76.67
55456;BME280;63021;52.836;6.376;2023-01-08T02:31:49;100272.38;;;8.61;76.62
55456;BME280;63021;52.836;6.376;2023-01-08T02:34:15;100268.22;;;8.58;76.72
55456;BME280;63021;52.836;6.376;2023-01-08T02:36:46;100274.19;;;8.60;76.97
55456;BME280;63021;52.836;6.376;2023-01-08T02:42:11;100276.00;;;8.60;76.84
55456;BME280;63021;52.836;6.376;2023-01-08T02:44:49;100265.41;;;8.60;76.74
55456;BME280;63021;52.836;6.376;2023-01-08T02:50:03;100259.13;;;8.61;77.02
55456;BME280;63021;52.836;6.376;2023-01-08T02:52:33;100257.28;;;8.61;77.11
55456;BME280;63021;52.836;6.376;2023-01-08T02:55:03;100258.13;;;8.62;77.05
55456;BME280;63021;52.836;6.376;2023-01-08T02:57:31;100259.13;;;8.61;77.44
55456;BME280;63021;52.836;6.376;2023-01-08T02:59:57;100242.34;;;8.60;77.09
55456;BME280;63021;52.836;6.376;2023-01-08T03:02:24;100240.41;;;8.62;77.17
55456;BME280;63021;52.836;6.376;2023-01-08T03:05:00;100242.19;;;8.62;77.39
55456;BME280;63021;52.836;6.376;2023-01-08T03:07:27;100266.06;;;8.62;77.01
55456;BME280;63021;52.836;6.376;2023-01-08T03:09:52;100251.00;;;8.62;76.96
55456;BME280;63021;52.836;6.376;2023-01-08T03:12:24;100249.47;;;8.60;77.03
55456;BME280;63021;52.836;6.376;2023-01-08T03:14:58;100254.94;;;8.58;77.64
55456;BME280;63021;52.836;6.376;2023-01-08T03:17:35;100267.53;;;8.56;77.25
55456;BME280;63021;52.836;6.376;2023-01-08T03:20:18;100244.94;;;8.52;77.35
55456;BME280;63021;52.836;6.376;2023-01-08T03:22:48;100251.22;;;8.51;76.95
55456;BME280;63021;52.836;6.376;2023-01-08T03:25:16;100246.06;;;8.49;77.44
55456;BME280;63021;52.836;6.376;2023-01-08T03:27:47;100240.75;;;8.49;77.98
55456;BME280;63021;52.836;6.376;2023-01-08T03:30:15;100252.34;;;8.48;78.02
55456;BME280;63021;52.836;6.376;2023-01-08T03:32:42;100257.63;;;8.48;78.21
55456;BME280;63021;52.836;6.376;2023-01-08T03:35:10;100251.38;;;8.49;77.81
55456;BME280;63021;52.836;6.376;2023-01-08T03:37:40;100251.38;;;8.49;77.73
55456;BME280;63021;52.836;6.376;2023-01-08T03:40:30;100251.22;;;8.51;78.00
55456;BME280;63021;52.836;6.376;2023-01-08T03:42:59;100246.72;;;8.52;78.60
55456;BME280;63021;52.836;6.376;2023-01-08T03:45:26;100266.00;;;8.54;78.63
55456;BME280;63021;52.836;6.376;2023-01-08T03:47:54;100250.09;;;8.54;78.56
55456;BME280;63021;52.836;6.376;2023-01-08T03:50:24;100241.00;;;8.56;78.70
55456;BME280;63021;52.836;6.376;2023-01-08T03:52:51;100240.00;;;8.57;78.88
55456;BME280;63021;52.836;6.376;2023-01-08T03:55:17;100253.41;;;8.56;78.92
55456;BME280;63021;52.836;6.376;2023-01-08T03:57:42;100238.88;;;8.60;78.69
55456;BME280;63021;52.836;6.376;2023-01-08T04:00:08;100236.06;;;8.61;78.88
55456;BME280;63021;52.836;6.376;2023-01-08T04:02:35;100243.06;;;8.62;78.82
55456;BME280;63021;52.836;6.376;2023-01-08T04:05:00;100223.34;;;8.65;78.83
55456;BME280;63021;52.836;6.376;2023-01-08T04:07:26;100222.34;;;8.66;78.74
55456;BME280;63021;52.836;6.376;2023-01-08T04:09:51;100244.44;;;8.66;79.16
55456;BME280;63021;52.836;6.376;2023-01-08T04:12:16;100231.00;;;8.68;78.81
55456;BME280;63021;52.836;6.376;2023-01-08T04:14:42;100224.03;;;8.67;78.99
55456;BME280;63021;52.836;6.376;2023-01-08T04:17:11;100226.53;;;8.69;79.26
55456;BME280;63021;52.836;6.376;2023-01-08T04:19:36;100221.22;;;8.69;79.09
55456;BME280;63021;52.836;6.376;2023-01-08T04:22:02;100210.28;;;8.72;79.29
55456;BME280;63021;52.836;6.376;2023-01-08T04:24:27;100210.16;;;8.73;79.53
55456;BME280;63021;52.836;6.376;2023-01-08T04:26:53;100211.97;;;8.73;79.23
55456;BME280;63021;52.836;6.376;2023-01-08T04:29:18;100198.56;;;8.74;79.13
55456;BME280;63021;52.836;6.376;2023-01-08T04:31:44;100185.94;;;8.76;79.66
55456;BME280;63021;52.836;6.376;2023-01-08T04:34:09;100194.78;;;8.77;79.53
55456;BME280;63021;52.836;6.376;2023-01-08T04:36:34;100208.03;;;8.77;79.27
55456;BME280;63021;52.836;6.376;2023-01-08T04:39:00;100208.03;;;8.77;79.48
55456;BME280;63021;52.836;6.376;2023-01-08T04:41:25;100187.63;;;8.77;78.98
55456;BME280;63021;52.836;6.376;2023-01-08T04:43:50;100192.94;;;8.77;79.35
55456;BME280;63021;52.836;6.376;2023-01-08T04:46:16;100193.91;;;8.76;79.59
55456;BME280;63021;52.836;6.376;2023-01-08T04:48:41;100184.97;;;8.77;79.00
55456;BME280;63021;52.836;6.376;2023-01-08T04:51:07;100191.13;;;8.78;79.43
55456;BME280;63021;52.836;6.376;2023-01-08T04:53:34;100184.16;;;8.77;79.48
55456;BME280;63021;52.836;6.376;2023-01-08T04:56:08;100181.50;;;8.77;79.67
55456;BME280;63021;52.836;6.376;2023-01-08T04:58:35;100197.44;;;8.77;79.40
55456;BME280;63021;52.836;6.376;2023-01-08T05:01:00;100178.84;;;8.77;79.27
55456;BME280;63021;52.836;6.376;2023-01-08T05:03:26;100177.16;;;8.76;78.92
55456;BME280;63021;52.836;6.376;2023-01-08T05:05:51;100171.84;;;8.76;79.33
55456;BME280;63021;52.836;6.376;2023-01-08T05:08:16;100175.50;;;8.75;79.46
55456;BME280;63021;52.836;6.376;2023-01-08T05:10:42;100135.84;;;8.73;78.98
55456;BME280;63021;52.836;6.376;2023-01-08T05:13:07;100162.38;;;8.73;79.38
55456;BME280;63021;52.836;6.376;2023-01-08T05:15:32;100151.75;;;8.73;79.25
55456;BME280;63021;52.836;6.376;2023-01-08T05:18:03;100157.91;;;8.74;79.36
55456;BME280;63021;52.836;6.376;2023-01-08T05:20:31;100169.50;;;8.73;79.20
55456;BME280;63021;52.836;6.376;2023-01-08T05:22:56;100156.41;;;8.71;79.13
55456;BME280;63021;52.836;6.376;2023-01-08T05:25:22;100161.72;;;8.71;79.06
55456;BME280;63021;52.836;6.376;2023-01-08T05:27:48;100166.19;;;8.71;79.15
55456;BME280;63021;52.836;6.376;2023-01-08T05:30:13;100146.91;;;8.69;78.81
55456;BME280;63021;52.836;6.376;2023-01-08T05:32:39;100155.56;;;8.71;78.62
55456;BME280;63021;52.836;6.376;2023-01-08T05:35:04;100155.56;;;8.71;79.20
55456;BME280;63021;52.836;6.376;2023-01-08T05:37:33;100151.91;;;8.72;79.18
55456;BME280;63021;52.836;6.376;2023-01-08T05:39:59;100162.69;;;8.70;78.84
55456;BME280;63021;52.836;6.376;2023-01-08T05:42:24;100163.66;;;8.69;78.76
55456;BME280;63021;52.836;6.376;2023-01-08T05:44:49;100169.13;;;8.67;78.92
55456;BME280;63021;52.836;6.376;2023-01-08T05:47:15;100163.00;;;8.67;79.46
55456;BME280;63021;52.836;6.376;2023-01-08T05:49:40;100166.63;;;8.66;79.29
55456;BME280;63021;52.836;6.376;2023-01-08T05:52:06;100165.94;;;8.64;79.32
55456;BME280;63021;52.836;6.376;2023-01-08T05:54:31;100162.75;;;8.60;79.27
55456;BME280;63021;52.836;6.376;2023-01-08T05:56:56;100161.94;;;8.60;79.06
55456;BME280;63021;52.836;6.376;2023-01-08T05:59:22;100164.59;;;8.60;79.46
55456;BME280;63021;52.836;6.376;2023-01-08T06:01:47;100172.84;;;8.57;79.22
55456;BME280;63021;52.836;6.376;2023-01-08T06:04:12;100172.16;;;8.55;79.98
55456;BME280;63021;52.836;6.376;2023-01-08T06:06:38;100167.69;;;8.55;79.52
55456;BME280;63021;52.836;6.376;2023-01-08T06:09:03;100164.50;;;8.52;79.60
55456;BME280;63021;52.836;6.376;2023-01-08T06:11:28;100162.00;;;8.50;79.49
55456;BME280;63021;52.836;6.376;2023-01-08T06:13:54;100162.97;;;8.49;79.56
55456;BME280;63021;52.836;6.376;2023-01-08T06:16:19;100155.16;;;8.47;79.79
55456;BME280;63021;52.836;6.376;2023-01-08T06:18:45;100165.78;;;8.47;79.94
55456;BME280;63021;52.836;6.376;2023-01-08T06:21:10;100162.44;;;8.45;79.55
55456;BME280;63021;52.836;6.376;2023-01-08T06:23:38;100168.56;;;8.46;79.89
55456;BME280;63021;52.836;6.376;2023-01-08T06:26:03;100164.41;;;8.43;79.97
55456;BME280;63021;52.836;6.376;2023-01-08T06:28:29;100176.97;;;8.41;80.02
55456;BME280;63021;52.836;6.376;2023-01-08T06:30:57;100182.25;;;8.41;79.55
55456;BME280;63021;52.836;6.376;2023-01-08T06:33:23;100194.00;;;8.39;79.71
55456;BME280;63021;52.836;6.376;2023-01-08T06:35:49;100183.53;;;8.37;79.71
55456;BME280;63021;52.836;6.376;2023-01-08T06:38:15;100180.06;;;8.37;79.74
55456;BME280;63021;52.836;6.376;2023-01-08T06:40:43;100175.06;;;8.33;80.04
55456;BME280;63021;52.836;6.376;2023-01-08T06:43:09;100180.38;;;8.33;80.30
55456;BME280;63021;52.836;6.376;2023-01-08T06:45:34;100175.06;;;8.33;79.96
55456;BME280;63021;52.836;6.376;2023-01-08T06:48:01;100166.25;;;8.33;80.29
55456;BME280;63021;52.836;6.376;2023-01-08T06:50:28;100168.09;;;8.32;79.64
55456;BME280;63021;52.836;6.376;2023-01-08T06:52:55;100191.28;;;8.30;79.69
55456;BME280;63021;52.836;6.376;2023-01-08T06:55:21;100171.72;;;8.31;79.89
55456;BME280;63021;52.836;6.376;2023-01-08T06:57:47;100167.56;;;8.29;79.81
55456;BME280;63021;52.836;6.376;2023-01-08T07:00:13;100165.88;;;8.28;80.19
55456;BME280;63021;52.836;6.376;2023-01-08T07:02:38;100164.34;;;8.25;79.65
55456;BME280;63021;52.836;6.376;2023-01-08T07:05:04;100173.28;;;8.24;79.80
55456;BME280;63021;52.836;6.376;2023-01-08T07:07:29;100169.97;;;8.22;79.67
55456;BME280;63021;52.836;6.376;2023-01-08T07:09:55;100182.66;;;8.19;79.47
55456;BME280;63021;52.836;6.376;2023-01-08T07:12:20;100168.88;;;8.15;79.46
55456;BME280;63021;52.836;6.376;2023-01-08T07:14:45;100170.97;;;8.11;79.47
55456;BME280;63021;52.836;6.376;2023-01-08T07:17:14;100197.78;;;8.08;79.57
55456;BME280;63021;52.836;6.376;2023-01-08T07:19:39;100174.91;;;8.07;79.72
55456;BME280;63021;52.836;6.376;2023-01-08T07:22:04;100169.75;;;8.06;79.83
55456;BME280;63021;52.836;6.376;2023-01-08T07:24:30;100187.50;;;8.05;79.84
55456;BME280;63021;52.836;6.376;2023-01-08T07:26:55;100177.03;;;8.04;80.03
55456;BME280;63021;52.836;6.376;2023-01-08T07:29:20;100195.59;;;8.04;79.74
55456;BME280;63021;52.836;6.376;2023-01-08T07:31:46;100202.00;;;8.01;79.58
55456;BME280;63021;52.836;6.376;2023-01-08T07:34:11;100187.06;;;8.00;80.06
55456;BME280;63021;52.836;6.376;2023-01-08T07:36:37;100190.72;;;7.99;79.52
55456;BME280;63021;52.836;6.376;2023-01-08T07:39:02;100186.41;;;7.98;79.82
55456;BME280;63021;52.836;6.376;2023-01-08T07:41:27;100189.34;;;7.95;79.33
55456;BME280;63021;52.836;6.376;2023-01-08T07:43:53;100190.47;;;7.92;79.54
55456;BME280;63021;52.836;6.376;2023-01-08T07:46:18;100209.31;;;7.89;79.79
55456;BME280;63021;52.836;6.376;2023-01-08T07:48:44;100191.88;;;7.87;79.64
55456;BME280;63021;52.836;6.376;2023-01-08T07:51:09;100182.25;;;7.86;80.17
55456;BME280;63021;52.836;6.376;2023-01-08T07:53:35;100194.81;;;7.84;79.73
55456;BME280;63021;52.836;6.376;2023-01-08T07:56:03;100183.56;;;7.82;79.47
55456;BME280;63021;52.836;6.376;2023-01-08T07:58:30;100194.56;;;7.77;80.01
55456;BME280;63021;52.836;6.376;2023-01-08T08:00:55;100190.28;;;7.76;79.83
55456;BME280;63021;52.836;6.376;2023-01-08T08:03:22;100178.97;;;7.74;79.82
55456;BME280;63021;52.836;6.376;2023-01-08T08:05:47;100173.66;;;7.74;79.30
55456;BME280;63021;52.836;6.376;2023-01-08T08:08:13;100168.66;;;7.71;80.08
55456;BME280;63021;52.836;6.376;2023-01-08T08:10:39;100168.81;;;7.69;79.33
55456;BME280;63021;52.836;6.376;2023-01-08T08:13:05;100163.81;;;7.66;79.65
55456;BME280;63021;52.836;6.376;2023-01-08T08:15:32;100159.47;;;7.65;79.44
55456;BME280;63021;52.836;6.376;2023-01-08T08:17:57;100165.06;;;7.62;79.62
55456;BME280;63021;52.836;6.376;2023-01-08T08:20:23;100151.81;;;7.62;79.69
55456;BME280;63021;52.836;6.376;2023-01-08T08:22:48;100153.91;;;7.58;80.05
55456;BME280;63021;52.836;6.376;2023-01-08T08:25:13;100172.59;;;7.57;79.83
55456;BME280;63021;52.836;6.376;2023-01-08T08:27:42;100152.41;;;7.56;79.64
55456;BME280;63021;52.836;6.376;2023-01-08T08:30:09;100149.06;;;7.54;79.63
55456;BME280;63021;52.836;6.376;2023-01-08T08:32:35;100151.69;;;7.54;79.58
55456;BME280;63021;52.836;6.376;2023-01-08T08:35:01;100147.25;;;7.54;80.04
55456;BME280;63021;52.836;6.376;2023-01-08T08:37:26;100143.06;;;7.52;80.11
55456;BME280;63021;52.836;6.376;2023-01-08T08:39:52;100137.78;;;7.52;79.52
55456;BME280;63021;52.836;6.376;2023-01-08T08:42:17;100134.28;;;7.51;79.89
55456;BME280;63021;52.836;6.376;2023-01-08T08:44:42;100133.75;;;7.48;80.28
55456;BME280;63021;52.836;6.376;2023-01-08T08:47:08;100128.31;;;7.49;79.61
55456;BME280;63021;52.836;6.376;2023-01-08T08:49:34;100122.19;;;7.49;79.93
55456;BME280;63021;52.836;6.376;2023-01-08T08:52:01;100143.38;;;7.49;79.82
55456;BME280;63021;52.836;6.376;2023-01-08T08:54:26;100123.00;;;7.49;79.99
55456;BME280;63021;52.836;6.376;2023-01-08T08:56:51;100143.06;;;7.52;79.98
55456;BME280;63021;52.836;6.376;2023-01-08T08:59:17;100123.53;;;7.53;80.37
55456;BME280;63021;52.836;6.376;2023-01-08T09:01:42;100131.06;;;7.57;79.61
55456;BME280;63021;52.836;6.376;2023-01-08T09:04:07;100122.69;;;7.62;79.92
55456;BME280;63021;52.836;6.376;2023-01-08T09:06:33;100125.84;;;7.66;79.51
55456;BME280;63021;52.836;6.376;2023-01-08T09:08:58;100143.13;;;7.70;79.61
55456;BME280;63021;52.836;6.376;2023-01-08T09:11:24;100129.75;;;7.71;79.38
55456;BME280;63021;52.836;6.376;2023-01-08T09:13:50;100135.59;;;7.75;79.56
55456;BME280;63021;52.836;6.376;2023-01-08T09:16:15;100139.47;;;7.80;79.14
55456;BME280;63021;52.836;6.376;2023-01-08T09:18:43;100132.91;;;7.85;79.58
55456;BME280;63021;52.836;6.376;2023-01-08T09:21:09;100127.31;;;7.88;79.38
55456;BME280;63021;52.836;6.376;2023-01-08T09:23:35;100144.75;;;7.90;79.12
55456;BME280;63021;52.836;6.376;2023-01-08T09:26:03;100148.78;;;7.94;78.61
55456;BME280;63021;52.836;6.376;2023-01-08T09:28:29;100132.41;;;7.99;79.29
55456;BME280;63021;52.836;6.376;2023-01-08T09:30:54;100138.41;;;8.01;79.12
55456;BME280;63021;52.836;6.376;2023-01-08T09:33:20;100137.13;;;8.05;79.10
55456;BME280;63021;52.836;6.376;2023-01-08T09:35:45;100146.44;;;8.09;78.45
55456;BME280;63021;52.836;6.376;2023-01-08T09:38:11;100156.09;;;8.10;78.58
55456;BME280;63021;52.836;6.376;2023-01-08T09:40:41;100145.03;;;8.15;78.41
55456;BME280;63021;52.836;6.376;2023-01-08T09:43:15;100150.03;;;8.18;77.94
55456;BME280;63021;52.836;6.376;2023-01-08T09:45:42;100131.31;;;8.20;78.25
55456;BME280;63021;52.836;6.376;2023-01-08T09:48:15;100146.41;;;8.19;77.45
55456;BME280;63021;52.836;6.376;2023-01-08T09:50:41;100135.78;;;8.19;77.82
55456;BME280;63021;52.836;6.376;2023-01-08T09:53:15;100144.41;;;8.21;77.12
55456;BME280;63021;52.836;6.376;2023-01-08T09:55:42;100140.94;;;8.21;77.05
55456;BME280;63021;52.836;6.376;2023-01-08T10:00:58;100135.50;;;8.22;76.79
55456;BME280;63021;52.836;6.376;2023-01-08T10:03:29;100144.41;;;8.21;77.08
55456;BME280;63021;52.836;6.376;2023-01-08T10:05:55;100129.38;;;8.22;76.49
55456;BME280;63021;52.836;6.376;2023-01-08T10:08:20;100131.00;;;8.23;76.64
55456;BME280;63021;52.836;6.376;2023-01-08T10:10:46;100134.66;;;8.22;76.62
55456;BME280;63021;52.836;6.376;2023-01-08T10:13:11;100127.69;;;8.21;76.42
55456;BME280;63021;52.836;6.376;2023-01-08T10:15:39;100131.16;;;8.21;76.58
55456;BME280;63021;52.836;6.376;2023-01-08T10:18:13;100120.56;;;8.21;76.25
55456;BME280;63021;52.836;6.376;2023-01-08T10:20:38;100117.22;;;8.19;75.90
55456;BME280;63021;52.836;6.376;2023-01-08T10:23:13;100120.03;;;8.18;75.77
55456;BME280;63021;52.836;6.376;2023-01-08T10:25:55;100115.72;;;8.17;76.04
55456;BME280;63021;52.836;6.376;2023-01-08T10:28:23;100126.31;;;8.17;75.58
55456;BME280;63021;52.836;6.376;2023-01-08T10:30:50;100106.06;;;8.15;75.65
55456;BME280;63021;52.836;6.376;2023-01-08T10:33:45;100109.59;;;8.16;76.18
55456;BME280;63021;52.836;6.376;2023-01-08T10:36:13;100103.44;;;8.15;75.92
55456;BME280;63021;52.836;6.376;2023-01-08T10:38:50;100104.41;;;8.14;75.40
55456;BME280;63021;52.836;6.376;2023-01-08T10:41:17;100105.25;;;8.15;75.50
55456;BME280;63021;52.836;6.376;2023-01-08T10:44:00;100104.28;;;8.16;75.07
55456;BME280;63021;52.836;6.376;2023-01-08T10:46:27;100096.19;;;8.18;75.80
55456;BME280;63021;52.836;6.376;2023-01-08T10:48:57;100097.00;;;8.18;75.42
55456;BME280;63021;52.836;6.376;2023-01-08T10:51:25;100099.81;;;8.17;75.59
55456;BME280;63021;52.836;6.376;2023-01-08T10:53:53;100085.19;;;8.12;75.00
55456;BME280;63021;52.836;6.376;2023-01-08T10:58:48;100092.00;;;8.15;75.25
55456;BME280;63021;52.836;6.376;2023-01-08T11:01:28;100090.03;;;8.17;75.16
55456;BME280;63021;52.836;6.376;2023-01-08T11:04:04;100088.38;;;8.16;75.50
55456;BME280;63021;52.836;6.376;2023-01-08T11:06:42;100085.56;;;8.18;75.10
55456;BME280;63021;52.836;6.376;2023-01-08T11:09:28;100084.56;;;8.19;74.40
55456;BME280;63021;52.836;6.376;2023-01-08T11:11:55;100069.66;;;8.18;75.01
55456;BME280;63021;52.836;6.376;2023-01-08T11:14:25;100067.69;;;8.20;75.03
55456;BME280;63021;52.836;6.376;2023-01-08T11:16:52;100074.66;;;8.21;74.77
55456;BME280;63021;52.836;6.376;2023-01-08T11:19:29;100063.75;;;8.24;74.84
55456;BME280;63021;52.836;6.376;2023-01-08T11:24:28;100070.41;;;8.28;74.90
55456;BME280;63021;52.836;6.376;2023-01-08T11:35:08;100050.06;;;8.46;74.36
55456;BME280;63021;52.836;6.376;2023-01-08T11:37:40;100035.63;;;8.49;74.28
55456;BME280;63021;52.836;6.376;2023-01-08T11:40:15;100047.47;;;8.55;74.88
55456;BME280;63021;52.836;6.376;2023-01-08T11:48:30;100022.53;;;8.65;74.38
55456;BME280;63021;52.836;6.376;2023-01-08T11:51:28;100024.03;;;8.68;74.77
55456;BME280;63021;52.836;6.376;2023-01-08T12:02:42;100008.13;;;8.68;74.14
55456;BME280;63021;52.836;6.376;2023-01-08T12:11:38;99996.56;;;8.77;74.45
55456;BME280;63021;52.836;6.376;2023-01-08T12:14:22;99995.56;;;8.78;73.69
55456;BME280;63021;52.836;6.376;2023-01-08T12:33:36;99993.25;;;8.75;73.28
55456;BME280;63021;52.836;6.376;2023-01-08T12:36:17;99976.31;;;8.76;73.33
55456;BME280;63021;52.836;6.376;2023-01-08T12:38:52;99970.00;;;8.77;73.33
55456;BME280;63021;52.836;6.376;2023-01-08T12:41:18;99965.41;;;8.79;73.81
55456;BME280;63021;52.836;6.376;2023-01-08T12:43:54;99983.34;;;8.86;73.56
55456;BME280;63021;52.836;6.376;2023-01-08T12:46:23;99974.91;;;8.90;73.54
55456;BME280;63021;52.836;6.376;2023-01-08T12:48:52;99968.28;;;8.94;73.54
55456;BME280;63021;52.836;6.376;2023-01-08T12:51:39;99954.53;;;8.99;73.84
55456;BME280;63021;52.836;6.376;2023-01-08T13:00:04;99948.78;;;9.12;73.40
55456;BME280;63021;52.836;6.376;2023-01-08T13:07:55;99931.22;;;9.19;73.24
55456;BME280;63021;52.836;6.376;2023-01-08T13:10:36;99933.56;;;9.22;73.45
55456;BME280;63021;52.836;6.376;2023-01-08T13:13:04;99937.88;;;9.23;73.14
55456;BME280;63021;52.836;6.376;2023-01-08T13:15:30;99924.44;;;9.25;73.29
55456;BME280;63021;52.836;6.376;2023-01-08T13:18:02;99925.28;;;9.25;72.86
55456;BME280;63021;52.836;6.376;2023-01-08T13:20:30;99919.81;;;9.27;72.62
55456;BME280;63021;52.836;6.376;2023-01-08T13:23:01;99924.13;;;9.28;72.97
55456;BME280;63021;52.836;6.376;2023-01-08T13:27:59;99917.81;;;9.29;72.92
55456;BME280;63021;52.836;6.376;2023-01-08T13:30:31;99902.53;;;9.31;72.53
55456;BME280;63021;52.836;6.376;2023-01-08T13:32:57;99904.03;;;9.33;72.79
55456;BME280;63021;52.836;6.376;2023-01-08T13:35:27;99909.19;;;9.35;72.69
55456;BME280;63021;52.836;6.376;2023-01-08T13:43:00;99883.16;;;9.39;72.67
55456;BME280;63021;52.836;6.376;2023-01-08T13:45:27;99888.97;;;9.42;72.52
55456;BME280;63021;52.836;6.376;2023-01-08T13:47:54;99899.59;;;9.42;72.07
55456;BME280;63021;52.836;6.376;2023-01-08T13:50:22;99873.69;;;9.44;72.36
55456;BME280;63021;52.836;6.376;2023-01-08T13:55:36;99878.34;;;9.42;71.60
55456;BME280;63021;52.836;6.376;2023-01-08T13:58:17;99874.84;;;9.42;71.71
55456;BME280;63021;52.836;6.376;2023-01-08T14:00:46;99881.31;;;9.39;71.97
55456;BME280;63021;52.836;6.376;2023-01-08T14:05:49;99868.53;;;9.34;71.64
55456;BME280;63021;52.836;6.376;2023-01-08T14:08:25;99866.03;;;9.33;71.59
55456;BME280;63021;52.836;6.376;2023-01-08T14:10:54;99864.22;;;9.33;71.13
55456;BME280;63021;52.836;6.376;2023-01-08T14:13:25;99865.72;;;9.36;71.79
55456;BME280;63021;52.836;6.376;2023-01-08T14:15:54;99871.84;;;9.36;71.31
55456;BME280;63021;52.836;6.376;2023-01-08T14:18:21;99859.59;;;9.35;71.70
55456;BME280;63021;52.836;6.376;2023-01-08T14:20:49;99854.44;;;9.34;70.91
55456;BME280;63021;52.836;6.376;2023-01-08T14:23:23;99860.03;;;9.31;71.58
55456;BME280;63021;52.836;6.376;2023-01-08T14:25:50;99853.25;;;9.28;70.95
55456;BME280;63021;52.836;6.376;2023-01-08T14:28:18;99846.44;;;9.26;70.87
55456;BME280;63021;52.836;6.376;2023-01-08T14:30:52;99847.75;;;9.22;70.68
55456;BME280;63021;52.836;6.376;2023-01-08T14:33:18;99845.25;;;9.20;71.25
55456;BME280;63021;52.836;6.376;2023-01-08T14:35:45;99840.09;;;9.10;71.01
55456;BME280;63021;52.836;6.376;2023-01-08T14:38:12;99846.38;;;9.09;71.27
55456;BME280;63021;52.836;6.376;2023-01-08T14:40:41;99848.38;;;9.07;71.57